Aktualne dane pomiarowe

Uwaga, wersja testowa! Automatyczne pobieranie danych za pomocą narzędzi lub skryptów to umożliwiających jest zabronione.

Dane meteo z obszaru Polski uzyskane na podstawie depesz SYNOP pobieranych co godzinę z NWS. Najedź myszką na symbol przedstawiony w tabeli, aby uzyskać informacje co do jego znaczenia. Prosimy pamiętać, że to testowa wersja strony, która jeszcze nie jest ukończona. Stworzono również jest krótki FAQ dotyczący korzystania z tej podstrony Anomalie temperatury w chwili obecnej odniesione są do okresu referencyjnego 1951-2016. Okres ten będzie później zmieniony na 1981-2010. Kliknij ikonę aby pobrać plik CSV. Kliknij ikonę aby wygenerować mapę synoptyczną dla danego terminu.

Wybierz Datę:    

        

Płock (12360)

Dane terminowe dla wybranej stacji. Kliknij datę, aby otrzymać dane z tego terminu dla wszystkich stacji.

TemperaturaZachmurzenieWiatrCiśnienieOpadyPogoda
 Data t td wb tx tn tg rh  Nt Nl Cl Cm Ch ws wd g1 g2 wx mslp ppp ch 24h 12h t ww ww w1 w2  
2019-07-12 23:00:00 16.1 12.3 13.6--- 7830.0--1wx--11009.7 996.8 0.4---------
2019-07-12 22:00:00 16.5 12.3 13.7--- 7630.0--2wx---1009.7 996.8 0.8---------
2019-07-12 21:00:00 16.7 12.2 13.8--- 7540.0--1wx--11009.5 996.6 0.9---------
2019-07-12 20:00:00 17.5 11.3 13.6--- 6740.0--1wx--11009.2 996.4 0.9---------
2019-07-12 19:00:00 19.1 10.1 13.7--- 5650.0--2wx--21008.7 996.0 0.7---------
2019-07-12 18:00:00 21.6 9.8 14.7 25.4 17.8- 4745.0--2wx--21008.3 995.7 0.1- 0.012------
2019-07-12 17:00:00 23.7 9.7 15.5--- 4145.0--3wx--31008.0 995.5 -0.5---------
2019-07-12 16:00:00 24.8 7.4 15.0--- 3340.0--1wx--11007.8 995.3 -0.9---------
2019-07-12 15:00:00 24.2 7.8 14.9--- 3540.0--3wx--31008.1 995.6 -1.0---------
2019-07-12 14:00:00 24.3 8.3 15.2--- 3645.0--1wx--11008.5 996.0 -1.1---------
2019-07-12 13:00:00 25.0 6.2 14.6--- 3030.0--2wx--21008.7 996.2 -1.0---------
2019-07-12 12:00:00 24.2 7.8 14.9--- 3530.0--2wx--21009.1 996.6 -0.8- 0.06------
2019-07-12 11:00:00 22.7 7.3 14.1--- 3740.0--2wx--21009.7 997.1 -0.5---------
2019-07-12 10:00:00 22.4 8.1 14.3--- 4040.0--2wx--21009.8 997.2 -0.5---------
2019-07-12 09:00:00 22.2 8.3 14.3--- 4127.0--2wx---1010.0 997.4 -0.4---------
2019-07-12 08:00:00 21.5 9.1 14.3--- 4530.0--2wx--21010.3 997.6 -0.2---------
2019-07-12 07:00:00 19.9 9.5 13.8--- 5130.0--2wx--21010.4 997.7 -0.2---------
2019-07-12 06:00:00 17.7 10.8 13.4 19.8 9.0 7 6430.0--2wx--21010.6 997.8 -0.1- 0.012----- 7.5
2019-07-12 05:00:00 15.0 11.0 12.4--- 7730.0--1wx---1010.7 997.8 -0.3---------
2019-07-12 04:00:00 10.0 9.4 9.5--- 9613.0--1wx--11011.1 997.9 -0.5---------
2019-07-12 03:00:00 9.1 8.5 8.6--- 969.0--1wx--11011.1 997.9 -0.6---------
2019-07-12 02:00:00 9.4 8.6 8.8--- 9511.0--1wx--11011.3 998.1 -0.8---------
2019-07-12 01:00:00 9.6 8.8 9.0--- 9512.0--1wx--11011.6 998.4 -0.4---------
2019-07-12 00:00:00 9.8 8.9 9.1--- 9410.0--0---01011.7 998.5 -0.1- 0.06------
2019-07-11 23:00:00 10.4 8.8 9.3--- 9012.0--0---01012.1 998.9 0.5---------
2019-07-11 22:00:00 12.0 9.6 10.4--- 8522.0--1wx--11011.9 998.8 0.6---------
2019-07-11 21:00:00 12.7 10.2 11.0--- 8520.0--1wx--11011.7 998.6 0.6---------
2019-07-11 20:00:00 13.7 10.5 11.6--- 8130.0--1wx--11011.4 998.4 0.4---------
2019-07-11 19:00:00 16.7 10.3 12.7--- 6650.0--1wx--11011.1 998.2 0.2---------
2019-07-11 18:00:00 19.8 9.4 13.7 21.1 12.8- 5140.0--1wx--11010.7 998.0 -0.3- 0.012------
2019-07-11 17:00:00 20.7 8.7 13.8--- 4645.0--4wx--41010.7 998.0 -0.4---------
2019-07-11 16:00:00 20.3 9.8 14.1--- 5140.0--1wx--11010.7 998.0 -0.5---------
2019-07-11 15:00:00 20.5 8.8 13.7--- 4730.0--3wx--31011.0 998.3 -0.5---------
2019-07-11 14:00:00 19.7 8.4 13.2--- 4835.0--3wx--31011.1 998.4 -0.5---------
2019-07-11 13:00:00 19.5 8.5 13.1--- 4940.0--3wx--31011.3 998.5 -0.6---------
2019-07-11 12:00:00 19.1 8.7 13.0--- 5135.0--4wx--41011.6 998.8 -0.6- 0.06------
2019-07-11 11:00:00 18.4 9.2 13.0--- 5530.0--4wx--41011.7 998.9 -0.3---------
2019-07-11 10:00:00 18.7 8.6 12.8--- 5228.0--3wx--31011.9 999.1 0.0---------
2019-07-11 09:00:00 16.4 9.1 12.0--- 6235.0--4wx--41012.3 999.4 0.5---------
2019-07-11 08:00:00 15.8 9.7 12.0--- 6730.0--3wx--31012.1 999.2 0.5---------
2019-07-11 07:00:00 14.0 10.8 11.9--- 8130.0--3wx---1012.1 999.1 0.6---------
2019-07-11 06:00:00 12.8 11.4 11.8 14.2 11.4 12 9122.0--2wx--21012.0 998.9 0.6 2.2 0.912----- 2.6
2019-07-11 05:00:00 11.9 11.0 11.2--- 9414.0--2wx--21011.8 998.7 0.3---------
2019-07-11 04:00:00 11.6 11.0 11.1--- 969.0--2wx--21011.6 998.5 0.0---------
2019-07-11 03:00:00 11.6 11.1 11.2--- 9712.0--2wx--21011.4 998.3 -0.3---------
2019-07-11 02:00:00 11.8 11.5 11.5--- 9810.0--2wx--21011.5 998.4 -0.2---------
2019-07-11 01:00:00 11.8 11.3 11.4--- 9711.0--1wx--11011.6 998.5 0.0---------
2019-07-11 00:00:00 11.8 11.3 11.4--- 9713.0--2wx-1021011.7 998.6 -0.1- 0.96------
1.6 ms

 

Print Friendly, PDF & Email